EGLCEGJJ

Guest
Details From EGLC - London City
To EGJJ - Jersey
Flight Number -
Tags Generated
Created
Modified
Stats Distance 163 nm / 301 km
Max Altitude 0 ft / 0 m
Waypoints 2
Social Downloads 3
Likes 0
Share VATSIM

Download

Looking for another format? Having issues loading an existing format? Contact us
Advertisement - Login to hide

Notes

Generated

Route

EGLC EGJJ

ID Type Via Altitude (ft/m) Position (lat/lon) Dist (leg/tot) Name
O EGLC APT - 0 / 0 51.50558 / 0.04414 - / 0 nm
O EGJJ APT - 0 / 0 49.20699 / -2.20693 162 / 162 nm

Altitude Profile

Advertisement - Login to hide

Weather


0- 5 10 15 20 25 30 35+ Temperature / °C

Clouds and Precipitation
Forecast for 2018-12-16 18:00 UTC. Updated 37 minutes ago

Ground ~20,000 ft ~40,000 ft Winds

EGLC

Details ICAO EGLC (LCY)
Name London City
Region United Kingdom
Timezone Europe/London (UTC+0.0)
Stats Elevation 19 ft / 6 m (AMSL)
Location 51.505200° 0.055183°
Runways 1
Magnetic Variation 0.237° W

METAR

EGLC 161550Z AUTO 14006KT 9999 NCD 09/06 Q1006

Decode

TAF

Not found

Departure Runways

ID Width Length Bearing (true/mag) Surface Threshold Overrun Markings Lighting
09 98 ft / 30 m 4,914 ft / 1,498 m 92.88° / 93.12° ASPHALT 308 ft / 94 m 190 ft / 58 m UK-PREC-APP CENTERLINE EDGE THRESHOLD MALS REIL-OMNI
27 98 ft / 30 m 4,914 ft / 1,498 m 272.90° / 273.13° ASPHALT 233 ft / 71 m 302 ft / 92 m UK-PREC-APP CENTERLINE EDGE THRESHOLD MALS REIL-OMNI

EGJJ

Details ICAO EGJJ (JER)
Name Jersey
Region United Kingdom
Timezone Europe/Jersey (UTC+0.0)
Stats Elevation 276 ft / 84 m (AMSL)
Location 49.208000° -2.195230°
Runways 1
Magnetic Variation 0.761° W

METAR

EGJJ 161550Z 21016KT 9999 FEW003 SCT011 BKN015 08/07 Q1005

Decode

TAF

Not found

Destination Runways

ID Width Length Bearing (true/mag) Surface Threshold Overrun Markings Lighting
08 151 ft / 46 m 5,600 ft / 1,707 m 82.74° / 83.50° ASPHALT 190 ft / 58 m 0 ft / 0 m UK-PREC-APP CENTERLINE EDGE THRESHOLD CALVERT TDZ REIL-OMNI
26 151 ft / 46 m 5,600 ft / 1,707 m 262.76° / 263.52° ASPHALT 318 ft / 97 m 0 ft / 0 m UK-PREC-APP CENTERLINE EDGE THRESHOLD CALVERT-ILS TDZ REIL-OMNI

Approach Navaids

Runway Type Ident Frequency Range Bearing (true/mag) Slope Elevation
08 DME IJJ 110.90 MHz 18 nm / 33 km - - 287 ft / 87 m (AMSL)
08 GS IJJ 110.90 MHz 18 nm / 33 km 82.75° / 83.51 ° 3.00° 276 ft / 84 m (AMSL)
08 LOC-ILS IJJ 110.90 MHz 18 nm / 33 km 82.75° / 83.51 ° - 276 ft / 84 m (AMSL)
26 DME IDD 110.30 MHz 18 nm / 33 km - - 289 ft / 88 m (AMSL)
26 LOC-ILS IDD 110.30 MHz 18 nm / 33 km 262.70° / 263.46 ° - 276 ft / 84 m (AMSL)
26 GS IDD 110.30 MHz 18 nm / 33 km 263.75° / 264.51 ° 3.00° 276 ft / 84 m (AMSL)

Popular Alternatives